Big Spring, Illinois
Current Conditions -  °F | °C
As of 6:53 AM on Saturday 25 Oct 2014 (Local Time) from KMTO Reporting Station
Clear Clear  
Wind Chill: 13°   Ceiling: Unl
Heat Index: 13°   Visibility: 10mi
Dew Point: 12°   Wind: 6mph
Humidity: 90%   Direction: 260°W
Pressure: 29.98"   Gusts: NA
Location:  39.3144°N, 88.4504°W
Report Text: KMTO 251153Z AUTO 26005KT 10SM CLR 13/12 A2998 RMK AO2 SLP150 T01330117 10161 20133 53009
Loading
Personal Weather Stations






























Interactive Weather Map
Tropical Storm Tracking
New forecast layout! Learn more

10-Day Weather Forecast

Advertisements
Track Severe Weather on mobile